Time;durP1;ratioP1;P1;durP2;ratioP2;P2;SDS_P1;SDS_P2;PMS_P1;PMS_P2;Temp;Humidity;BMP_temperature;BMP_pressure;BME280_temperature;BME280_humidity;BME280_pressure;Samples;Min_cycle;Max_cycle;Signal;HPM_P1;HPM_P2
2021/09/28 00:01:00;;;;;;;17.45;8.05;;;;;;;14.02;72.94;94830.66;1700714;83;20951;-56
2021/09/28 00:03:27;;;;;;;18.77;7.85;;;;;;;14.00;72.92;94824.20;1707011;84;21938;-56
2021/09/28 00:05:54;;;;;;;13.95;8.23;;;;;;;14.01;72.93;94828.50;1711330;83;21054;-56
2021/09/28 00:08:21;;;;;;;17.07;8.08;;;;;;;14.01;73.06;94826.36;1681562;83;20975;-56
2021/09/28 00:10:48;;;;;;;15.68;7.92;;;;;;;14.01;73.05;94831.89;1704761;83;21007;-56
2021/09/28 00:13:16;;;;;;;13.90;7.50;;;;;;;13.99;72.84;94830.97;1704891;83;21014;-56
2021/09/28 00:15:43;;;;;;;18.52;8.30;;;;;;;13.98;72.85;94824.53;1672542;83;21160;-56
2021/09/28 00:18:11;;;;;;;18.73;7.67;;;;;;;13.95;72.79;94826.22;1704781;83;21560;-56
2021/09/28 00:20:39;;;;;;;14.33;8.30;;;;;;;13.92;72.96;94825.00;1685207;83;21161;-56
2021/09/28 00:23:08;;;;;;;14.33;8.08;;;;;;;13.93;72.96;94815.47;1692919;83;20954;-56
2021/09/28 00:25:35;;;;;;;15.25;7.97;;;;;;;13.92;72.89;94819.47;1649092;85;21040;-56
2021/09/28 00:28:03;;;;;;;14.87;8.10;;;;;;;13.93;72.86;94818.23;1672915;85;21136;-56
2021/09/28 00:30:30;;;;;;;14.73;7.72;;;;;;;13.94;72.90;94818.37;1661204;84;21007;-56
2021/09/28 00:32:57;;;;;;;15.18;8.70;;;;;;;13.92;72.90;94811.95;1707053;83;21007;-56
2021/09/28 00:35:24;;;;;;;11.25;7.70;;;;;;;13.95;72.93;94813.00;1705118;83;21033;-57
2021/09/28 00:37:52;;;;;;;18.00;8.33;;;;;;;13.96;72.97;94813.17;1700755;83;21608;-56
2021/09/28 00:40:19;;;;;;;15.38;7.75;;;;;;;13.94;73.05;94803.16;1688110;83;21118;-56
2021/09/28 00:42:47;;;;;;;12.58;7.35;;;;;;;13.94;73.17;94807.31;1698600;83;20999;-57
2021/09/28 00:45:14;;;;;;;19.87;8.03;;;;;;;13.92;73.01;94798.72;1689514;83;21059;-56
2021/09/28 00:47:41;;;;;;;15.68;7.58;;;;;;;13.87;72.97;94807.05;1691468;83;20967;-57
2021/09/28 00:50:10;;;;;;;13.98;7.95;;;;;;;13.87;73.01;94802.13;1711727;83;20971;-56
2021/09/28 00:52:37;;;;;;;15.48;7.65;;;;;;;13.86;73.12;94800.59;1681264;83;21793;-56
2021/09/28 00:55:05;;;;;;;15.85;8.33;;;;;;;13.84;73.33;94803.06;1676610;83;21220;-56
2021/09/28 00:57:33;;;;;;;16.67;8.33;;;;;;;13.79;73.39;94798.17;1711230;83;21529;-56
2021/09/28 01:00:02;;;;;;;15.38;7.25;;;;;;;13.79;73.33;94792.65;1693583;83;21007;-57
2021/09/28 01:02:30;;;;;;;10.03;7.08;;;;;;;13.76;73.45;94794.94;1682743;83;21066;-57
2021/09/28 01:05:02;;;;;;;12.60;6.78;;;;;;;13.72;73.53;94793.73;1690887;83;21137;-57
2021/09/28 01:07:26;;;;;;;14.95;7.62;;;;;;;13.66;73.73;94789.30;1700701;83;20990;-56
2021/09/28 01:09:53;;;;;;;12.78;7.75;;;;;;;13.60;74.05;94790.54;1696390;83;21539;-56
2021/09/28 01:12:20;;;;;;;9.73;7.12;;;;;;;13.60;74.26;94798.08;1686608;83;21012;-56
2021/09/28 01:14:47;;;;;;;9.93;6.33;;;;;;;13.63;74.51;94795.13;1702403;83;21490;-56
2021/09/28 01:17:17;;;;;;;11.73;7.28;;;;;;;13.64;74.70;94791.77;1697425;83;20984;-56
2021/09/28 01:19:44;;;;;;;12.23;7.20;;;;;;;13.62;74.81;94792.22;1687782;83;21010;-56
2021/09/28 01:22:11;;;;;;;12.13;7.10;;;;;;;13.57;74.71;94793.45;1687603;83;21423;-56
2021/09/28 01:24:41;;;;;;;15.38;7.03;;;;;;;13.52;74.70;94798.23;1690493;83;21451;-56
2021/09/28 01:27:07;;;;;;;14.35;7.62;;;;;;;13.49;74.88;94797.80;1677900;83;21023;-56
2021/09/28 01:29:33;;;;;;;10.23;6.72;;;;;;;13.45;75.05;94790.28;1691860;83;21074;-56
2021/09/28 01:32:00;;;;;;;12.75;7.40;;;;;;;13.43;75.21;94789.98;1698771;83;20956;-56
2021/09/28 01:34:26;;;;;;;11.88;6.95;;;;;;;13.37;75.24;94789.05;1704992;83;21006;-56
2021/09/28 01:36:53;;;;;;;16.27;7.80;;;;;;;13.31;75.30;94788.94;1707132;82;21015;-56
2021/09/28 01:39:21;;;;;;;14.47;6.22;;;;;;;13.24;75.53;94789.23;1689056;83;20971;-56
2021/09/28 01:41:49;;;;;;;12.53;6.87;;;;;;;13.21;75.68;94792.15;1698046;83;21062;-56
2021/09/28 01:44:18;;;;;;;14.63;7.17;;;;;;;13.18;75.86;94786.17;1697864;83;21404;-56
2021/09/28 01:46:48;;;;;;;14.03;6.95;;;;;;;13.18;75.86;94789.71;1686995;83;20896;-56
2021/09/28 01:49:17;;;;;;;10.80;6.92;;;;;;;13.17;75.86;94790.95;1719603;83;21503;-56
2021/09/28 01:51:44;;;;;;;12.23;7.22;;;;;;;13.20;75.90;94793.38;1686300;83;21046;-56
2021/09/28 01:54:11;;;;;;;13.70;6.92;;;;;;;13.21;75.82;94785.24;1688149;83;21138;-56
2021/09/28 01:56:38;;;;;;;12.37;6.55;;;;;;;13.21;75.87;94794.31;1693327;83;21572;-56
2021/09/28 01:59:07;;;;;;;17.02;7.30;;;;;;;13.22;75.88;94786.77;1681689;83;20976;-56
2021/09/28 02:01:34;;;;;;;13.40;6.90;;;;;;;13.20;75.97;94784.48;1695139;83;21498;-56
2021/09/28 02:04:00;;;;;;;14.33;7.67;;;;;;;13.20;76.15;94780.95;1679124;85;20998;-56
2021/09/28 02:06:30;;;;;;;13.43;7.00;;;;;;;13.21;76.09;94783.86;1702892;83;22057;-56
2021/09/28 02:08:57;;;;;;;13.03;7.17;;;;;;;13.17;76.22;94785.42;1702442;83;21000;-56
2021/09/28 02:11:24;;;;;;;15.10;7.42;;;;;;;13.16;76.17;94785.88;1675902;83;21074;-56
2021/09/28 02:13:53;;;;;;;12.82;7.03;;;;;;;13.16;76.21;94784.48;1679226;82;21002;-56
2021/09/28 02:16:22;;;;;;;10.98;6.55;;;;;;;13.19;76.20;94790.47;1690769;84;21031;-56
2021/09/28 02:18:49;;;;;;;15.68;7.58;;;;;;;13.15;76.21;94785.72;1681297;83;21225;-56
2021/09/28 02:21:16;;;;;;;16.70;8.23;;;;;;;13.13;76.40;94782.05;1693488;83;20991;-56
2021/09/28 02:23:43;;;;;;;20.15;7.35;;;;;;;13.12;76.48;94786.65;1695671;83;20975;-56
2021/09/28 02:26:10;;;;;;;11.60;6.45;;;;;;;13.11;76.55;94787.25;1684117;83;21008;-56
2021/09/28 02:28:36;;;;;;;15.93;7.65;;;;;;;13.12;76.52;94788.78;1691261;83;21002;-56
2021/09/28 02:31:04;;;;;;;17.02;8.88;;;;;;;13.10;76.45;94790.48;1691920;83;21141;-56
2021/09/28 02:33:31;;;;;;;11.55;7.60;;;;;;;13.06;76.51;94784.36;1695969;83;21525;-56
2021/09/28 02:35:58;;;;;;;11.50;7.72;;;;;;;13.05;76.60;94778.05;1713917;83;21174;-56
2021/09/28 02:38:24;;;;;;;12.85;7.65;;;;;;;13.05;76.42;94782.83;1703538;83;21006;-56
2021/09/28 02:40:51;;;;;;;14.73;7.75;;;;;;;13.02;76.53;94776.83;1703987;83;20994;-56
2021/09/28 02:43:18;;;;;;;13.95;8.45;;;;;;;13.03;76.55;94776.38;1693963;83;21208;-56
2021/09/28 02:45:50;;;;;;;13.93;9.35;;;;;;;13.03;76.51;94774.99;1704397;83;20991;-56
2021/09/28 02:48:16;;;;;;;14.47;8.78;;;;;;;13.02;76.45;94774.06;1682720;83;21128;-56
2021/09/28 02:50:43;;;;;;;13.98;7.67;;;;;;;12.95;76.45;94775.77;1688243;83;21142;-57
2021/09/28 02:53:11;;;;;;;19.02;8.95;;;;;;;12.88;76.62;94777.44;1680818;83;21462;-56
2021/09/28 02:55:38;;;;;;;15.35;8.13;;;;;;;12.84;76.89;94774.04;1677899;85;21739;-57
2021/09/28 02:58:05;;;;;;;16.60;7.97;;;;;;;12.86;77.01;94770.23;1706197;83;21073;-56
2021/09/28 03:00:33;;;;;;;13.78;8.25;;;;;;;12.84;77.05;94770.68;1713077;83;21026;-56
2021/09/28 03:03:00;;;;;;;16.55;9.00;;;;;;;12.79;77.15;94767.76;1709931;83;20986;-56
2021/09/28 03:05:27;;;;;;;16.40;8.45;;;;;;;12.77;77.32;94767.45;1710476;83;21458;-56
2021/09/28 03:07:54;;;;;;;25.80;10.43;;;;;;;12.74;77.41;94769.13;1703694;83;21202;-56
2021/09/28 03:10:21;;;;;;;19.98;10.95;;;;;;;12.73;77.62;94767.60;1696670;83;20967;-56
2021/09/28 03:12:49;;;;;;;30.57;12.85;;;;;;;12.75;77.81;94767.16;1703144;83;20951;-56
2021/09/28 03:15:17;;;;;;;26.17;13.62;;;;;;;12.74;77.99;94760.85;1702783;83;21408;-56
2021/09/28 03:17:45;;;;;;;27.77;14.38;;;;;;;12.74;78.11;94760.85;1684061;83;21073;-56
2021/09/28 03:20:14;;;;;;;22.67;12.37;;;;;;;12.77;78.12;94766.08;1675950;84;20999;-57
2021/09/28 03:22:41;;;;;;;19.95;10.60;;;;;;;12.73;78.02;94768.98;1695447;83;20999;-56
2021/09/28 03:25:09;;;;;;;17.27;10.70;;;;;;;12.70;78.00;94772.66;1705748;83;20971;-57
2021/09/28 03:27:36;;;;;;;14.20;8.75;;;;;;;12.60;78.05;94770.36;1692172;83;21026;-57
2021/09/28 03:30:05;;;;;;;20.27;9.15;;;;;;;12.47;78.35;94766.97;1694622;83;21058;-56
2021/09/28 03:32:32;;;;;;;14.07;8.15;;;;;;;12.39;78.60;94775.41;1707961;83;21185;-56
2021/09/28 03:35:00;;;;;;;18.30;8.60;;;;;;;12.34;78.76;94780.75;1687705;83;20967;-55
2021/09/28 03:37:27;;;;;;;12.23;8.03;;;;;;;12.29;79.00;94781.37;1681433;83;21024;-55
2021/09/28 03:39:53;;;;;;;15.68;9.13;;;;;;;12.27;79.18;94774.91;1685527;83;21015;-55
2021/09/28 03:42:20;;;;;;;13.05;9.30;;;;;;;12.27;79.29;94772.78;1700095;83;20971;-55
2021/09/28 03:44:47;;;;;;;12.53;9.08;;;;;;;12.27;79.46;94779.05;1688990;83;21133;-55
2021/09/28 03:47:14;;;;;;;14.87;8.40;;;;;;;12.27;79.55;94774.91;1712076;83;21010;-56
2021/09/28 03:49:41;;;;;;;13.55;8.48;;;;;;;12.23;79.55;94772.92;1705724;83;21004;-56
2021/09/28 03:52:08;;;;;;;13.65;7.53;;;;;;;12.22;79.72;94781.04;1709674;83;20955;-56
2021/09/28 03:54:35;;;;;;;14.15;8.93;;;;;;;12.24;79.80;94779.97;1678677;83;21023;-55
2021/09/28 03:57:02;;;;;;;20.10;9.70;;;;;;;12.24;79.71;94778.59;1673737;85;21940;-56
2021/09/28 03:59:29;;;;;;;12.47;8.28;;;;;;;12.23;79.81;94783.95;1711415;83;21034;-56
2021/09/28 04:01:57;;;;;;;17.57;8.08;;;;;;;12.24;79.77;94784.73;1695779;83;20943;-56
2021/09/28 04:04:24;;;;;;;20.00;8.38;;;;;;;12.22;79.76;94783.02;1688479;83;20995;-56
2021/09/28 04:06:51;;;;;;;15.90;8.13;;;;;;;12.18;79.73;94785.94;1681589;83;20975;-56
2021/09/28 04:09:18;;;;;;;13.70;8.23;;;;;;;12.18;79.78;94786.54;1694898;83;21144;-57
2021/09/28 04:11:46;;;;;;;16.62;9.03;;;;;;;12.19;79.78;94790.23;1684602;83;21059;-56
2021/09/28 04:14:16;;;;;;;12.33;9.23;;;;;;;12.20;79.71;94790.39;1670850;85;21061;-56
2021/09/28 04:16:42;;;;;;;16.48;9.28;;;;;;;12.16;79.56;94787.02;1696129;83;21101;-56
2021/09/28 04:19:09;;;;;;;11.50;8.13;;;;;;;12.13;79.52;94792.06;1713255;83;21429;-57
2021/09/28 04:21:37;;;;;;;15.10;7.97;;;;;;;12.07;79.55;94788.34;1690810;83;21146;-57
2021/09/28 04:24:06;;;;;;;17.48;8.53;;;;;;;12.06;79.52;94792.33;1704719;83;21014;-58
2021/09/28 04:26:34;;;;;;;11.93;8.48;;;;;;;12.07;79.47;94796.63;1706170;83;21091;-58
2021/09/28 04:29:01;;;;;;;12.35;8.35;;;;;;;12.06;79.44;94799.23;1695739;83;21007;-57
2021/09/28 04:31:28;;;;;;;18.35;8.40;;;;;;;12.05;79.45;94803.20;1696319;83;21459;-57
2021/09/28 04:33:55;;;;;;;13.03;8.20;;;;;;;12.05;79.47;94805.97;1679595;83;21176;-57
2021/09/28 04:36:22;;;;;;;16.35;9.80;;;;;;;12.07;79.43;94810.41;1708797;83;21050;-56
2021/09/28 04:38:50;;;;;;;15.70;8.15;;;;;;;12.08;79.38;94807.81;1692660;83;20999;-57
2021/09/28 04:41:17;;;;;;;11.57;7.72;;;;;;;12.10;79.24;94805.98;1695254;83;21439;-56
2021/09/28 04:43:44;;;;;;;21.45;8.65;;;;;;;12.14;79.10;94798.33;1699086;83;21010;-57
2021/09/28 04:46:11;;;;;;;14.33;8.75;;;;;;;12.15;79.04;94808.92;1675967;83;21038;-61
2021/09/28 04:48:40;;;;;;;13.55;8.05;;;;;;;12.16;78.97;94813.21;1698238;83;20951;-57
2021/09/28 04:51:06;;;;;;;20.65;8.28;;;;;;;12.16;78.96;94811.05;1689149;83;21006;-57
2021/09/28 04:53:34;;;;;;;15.13;7.60;;;;;;;12.17;78.93;94807.85;1679799;84;21141;-57
2021/09/28 04:56:01;;;;;;;42.78;10.60;;;;;;;12.18;79.03;94803.87;1679065;85;21019;-57
2021/09/28 04:58:28;;;;;;;20.48;10.55;;;;;;;12.19;79.04;94802.64;1691959;83;21146;-57
2021/09/28 05:00:55;;;;;;;19.30;10.55;;;;;;;12.25;79.05;94813.22;1698871;83;21584;-57
2021/09/28 05:03:22;;;;;;;27.13;12.10;;;;;;;12.28;78.98;94812.94;1703464;83;21067;-59
2021/09/28 05:05:48;;;;;;;25.00;10.65;;;;;;;12.29;78.79;94809.70;1684638;83;21129;-56
2021/09/28 05:08:17;;;;;;;21.68;9.85;;;;;;;12.31;78.56;94810.04;1705697;83;21498;-57
2021/09/28 05:10:44;;;;;;;14.50;8.55;;;;;;;12.32;78.31;94806.66;1685967;83;21235;-57
2021/09/28 05:13:11;;;;;;;14.45;7.30;;;;;;;12.30;78.26;94805.72;1698587;83;20996;-58
2021/09/28 05:15:38;;;;;;;13.25;7.85;;;;;;;12.31;78.03;94807.28;1703768;82;21004;-57
2021/09/28 05:18:05;;;;;;;13.75;7.90;;;;;;;12.27;77.92;94808.64;1712891;83;21054;-60
2021/09/28 05:20:35;;;;;;;12.03;6.95;;;;;;;12.25;78.11;94813.84;1699923;83;20991;-57
2021/09/28 05:23:03;;;;;;;37.48;10.98;;;;;;;12.26;78.11;94814.76;1688961;83;21210;-55
2021/09/28 05:25:31;;;;;;;20.68;9.40;;;;;;;12.24;78.06;94821.34;1664117;85;20979;-57
2021/09/28 05:27:57;;;;;;;59.38;9.83;;;;;;;12.21;78.10;94819.50;1688524;83;21022;-58
2021/09/28 05:30:25;;;;;;;13.70;8.25;;;;;;;12.25;78.24;94817.98;1705166;83;21014;-58
2021/09/28 05:32:52;;;;;;;18.95;10.65;;;;;;;12.31;78.24;94816.94;1682094;83;20983;-57
2021/09/28 05:35:19;;;;;;;17.30;9.00;;;;;;;12.35;78.16;94813.41;1673765;83;21148;-58
2021/09/28 05:37:46;;;;;;;11.83;7.62;;;;;;;12.38;78.23;94817.23;1687490;84;21069;-57
2021/09/28 05:40:13;;;;;;;12.85;7.87;;;;;;;12.39;78.17;94818.17;1689216;83;21101;-60
2021/09/28 05:42:41;;;;;;;13.30;8.30;;;;;;;12.39;78.07;94819.55;1675863;83;21482;-59
2021/09/28 05:45:09;;;;;;;27.70;8.25;;;;;;;12.38;78.21;94820.77;1702918;83;21003;-58
2021/09/28 05:47:35;;;;;;;19.32;7.75;;;;;;;12.44;78.32;94827.22;1670710;83;21136;-61
2021/09/28 05:50:07;;;;;;;25.48;7.45;;;;;;;12.53;78.12;94827.25;1697172;83;21007;-58
2021/09/28 05:52:35;;;;;;;;;;;;;;;12.55;77.98;94825.55;1703296;83;21543;-59
2021/09/28 05:55:03;;;;;;;19.35;8.15;;;;;;;12.63;77.81;94833.70;1694500;82;20432;-59
2021/09/28 05:57:31;;;;;;;16.62;9.28;;;;;;;12.69;77.75;94826.97;1705202;82;21178;-59
2021/09/28 05:59:58;;;;;;;25.48;8.55;;;;;;;12.78;77.52;94826.36;1703496;82;21192;-58
2021/09/28 06:02:26;;;;;;;20.50;8.80;;;;;;;12.84;77.17;94831.42;1686772;83;21827;-59
2021/09/28 06:04:53;;;;;;;18.55;8.73;;;;;;;12.90;77.34;94819.16;1704195;82;21005;-59
2021/09/28 06:07:22;;;;;;;18.27;9.58;;;;;;;12.97;77.24;94828.53;1695528;82;21040;-60
2021/09/28 06:09:49;;;;;;;22.13;11.43;;;;;;;13.02;77.18;94828.70;1704913;82;21072;-58
2021/09/28 06:12:17;;;;;;;26.65;15.40;;;;;;;13.12;77.17;94832.23;1689134;82;21105;-60
2021/09/28 06:14:44;;;;;;;18.62;10.78;;;;;;;13.21;76.97;94825.30;1705288;82;21950;-58
2021/09/28 06:17:10;;;;;;;20.43;9.65;;;;;;;13.31;76.62;94833.75;1682921;83;21045;-59
2021/09/28 06:19:38;;;;;;;19.95;9.68;;;;;;;13.40;76.35;94832.34;1693576;83;21071;-58
2021/09/28 06:22:08;;;;;;;18.45;11.90;;;;;;;13.52;76.17;94830.02;1709833;82;21068;-57
2021/09/28 06:24:36;;;;;;;22.77;11.60;;;;;;;13.65;75.99;94824.46;1677697;82;22347;-58
2021/09/28 06:27:05;;;;;;;33.63;10.60;;;;;;;13.78;75.52;94826.43;1695625;82;21073;-59
2021/09/28 06:29:33;;;;;;;26.17;10.13;;;;;;;13.87;75.01;94827.80;1687689;82;22234;-57
2021/09/28 06:31:59;;;;;;;20.80;9.30;;;;;;;13.89;74.73;94825.33;1660525;84;21147;-57
2021/09/28 06:34:26;;;;;;;13.35;8.45;;;;;;;13.92;74.39;94829.14;1678807;83;20963;-58
2021/09/28 06:36:53;;;;;;;11.97;6.87;;;;;;;13.94;73.82;94833.59;1687678;82;21122;-60
2021/09/28 06:39:20;;;;;;;12.65;7.95;;;;;;;13.96;73.53;94828.39;1690775;82;21101;-57
2021/09/28 06:42:02;;;;;;;18.60;10.15;;;;;;;13.91;73.54;94835.31;1686878;82;20963;-57
2021/09/28 06:44:37;;;;;;;15.40;7.95;;;;;;;13.92;73.78;94830.53;1709414;82;21019;-57
2021/09/28 06:47:11;;;;;;;;;;;;;;;13.97;73.65;94835.45;1686908;82;20998;-57
2021/09/28 06:49:40;;;;;;;14.40;8.03;;;;;;;14.01;73.44;94838.81;1707279;82;21145;-59
2021/09/28 06:52:07;;;;;;;14.85;8.38;;;;;;;14.05;73.50;94838.02;1667252;83;21072;-59
2021/09/28 06:54:34;;;;;;;20.43;8.48;;;;;;;14.14;73.03;94838.00;1656359;83;21059;-61
2021/09/28 06:57:01;;;;;;;16.50;8.43;;;;;;;14.26;72.93;94832.88;1681568;83;21030;-60
2021/09/28 06:59:28;;;;;;;10.58;6.65;;;;;;;14.34;72.56;94838.25;1686001;82;21108;-60
2021/09/28 07:01:56;;;;;;;14.45;8.50;;;;;;;14.41;72.34;94832.36;1700333;82;21053;-59
2021/09/28 07:04:23;;;;;;;16.35;7.47;;;;;;;14.46;71.90;94827.70;1673267;82;21082;-61
2021/09/28 07:06:50;;;;;;;26.90;12.95;;;;;;;14.56;71.78;94829.20;1677288;82;22273;-59
2021/09/28 07:09:18;;;;;;;16.75;7.03;;;;;;;14.64;71.81;94833.13;1698372;83;21106;-56
2021/09/28 07:11:45;;;;;;;14.33;7.40;;;;;;;14.68;71.66;94835.13;1693141;83;21082;-59
2021/09/28 07:14:12;;;;;;;12.33;8.08;;;;;;;14.74;71.62;94837.39;1689355;83;21152;-55
2021/09/28 07:16:42;;;;;;;16.67;8.33;;;;;;;14.75;71.09;94840.30;1696069;83;21140;-58
2021/09/28 07:19:09;;;;;;;12.63;7.35;;;;;;;14.76;71.10;94836.30;1675369;83;21034;-60
2021/09/28 07:21:38;;;;;;;16.45;9.05;;;;;;;14.79;71.06;94840.89;1702244;83;21051;-62
2021/09/28 07:24:05;;;;;;;20.17;8.63;;;;;;;14.81;71.13;94845.33;1682621;83;21123;-59
2021/09/28 07:26:32;;;;;;;12.07;7.33;;;;;;;14.90;71.00;94845.89;1700881;82;21191;-63
2021/09/28 07:28:59;;;;;;;24.02;9.98;;;;;;;15.00;70.37;94843.22;1697964;82;21054;-58
2021/09/28 07:31:26;;;;;;;14.03;8.85;;;;;;;15.10;70.36;94844.06;1704500;82;21022;-55
2021/09/28 07:33:53;;;;;;;17.27;7.87;;;;;;;15.23;70.04;94840.42;1701408;82;21019;-52
2021/09/28 07:36:20;;;;;;;15.08;8.50;;;;;;;15.35;69.86;94836.64;1686852;83;21452;-57
2021/09/28 07:38:46;;;;;;;14.18;8.00;;;;;;;15.47;69.44;94843.94;1689528;83;21134;-58
2021/09/28 07:41:15;;;;;;;15.55;7.97;;;;;;;15.61;69.41;94841.80;1690375;82;21555;-61
2021/09/28 07:43:42;;;;;;;13.88;8.48;;;;;;;15.71;69.33;94847.39;1683333;82;20979;-62
2021/09/28 07:46:11;;;;;;;15.83;7.22;;;;;;;15.80;69.12;94850.09;1683533;82;21531;-65
2021/09/28 07:48:40;;;;;;;15.10;8.65;;;;;;;15.90;68.82;94844.57;1703303;82;21123;-58
2021/09/28 07:51:07;;;;;;;20.20;8.70;;;;;;;16.03;67.72;94853.98;1694666;82;21146;-61
2021/09/28 07:53:34;;;;;;;12.40;7.62;;;;;;;16.14;67.42;94845.86;1675229;83;21084;-62
2021/09/28 07:56:02;;;;;;;18.80;8.98;;;;;;;16.24;67.18;94850.82;1697585;81;21619;-60
2021/09/28 07:58:31;;;;;;;17.15;8.28;;;;;;;16.33;66.16;94852.11;1697423;82;21022;-62
2021/09/28 08:00:57;;;;;;;10.72;7.60;;;;;;;16.32;65.49;94852.72;1680436;83;21104;-57
2021/09/28 08:03:24;;;;;;;13.48;7.65;;;;;;;16.30;66.25;94849.66;1705844;82;21236;-62
2021/09/28 08:05:52;;;;;;;14.38;8.03;;;;;;;16.27;65.55;94861.59;1701421;82;21056;-60
2021/09/28 08:08:18;;;;;;;15.13;9.63;;;;;;;16.24;65.91;94857.01;1686934;83;21383;-58
2021/09/28 08:10:47;;;;;;;12.95;7.95;;;;;;;16.21;65.74;94871.22;1703546;82;21084;-58
2021/09/28 08:13:14;;;;;;;16.90;8.15;;;;;;;16.17;66.02;94867.88;1705502;82;21163;-60
2021/09/28 08:15:43;;;;;;;17.80;8.63;;;;;;;16.11;66.33;94869.03;1693121;83;21149;-58
2021/09/28 08:18:10;;;;;;;15.20;7.67;;;;;;;15.97;65.24;94871.17;1691561;82;21454;-57
2021/09/28 08:20:37;;;;;;;12.65;6.92;;;;;;;15.80;65.52;94875.06;1690165;82;21089;-58
2021/09/28 08:23:04;;;;;;;9.13;6.40;;;;;;;15.72;65.66;94872.50;1681343;83;21113;-60
2021/09/28 08:25:37;;;;;;;10.75;6.67;;;;;;;15.57;65.65;94877.25;1689039;82;20995;-59
2021/09/28 08:30:49;;;;;;;12.93;6.35;;;;;;;15.37;66.29;94887.47;1670845;84;21896;-58
2021/09/28 08:33:16;;;;;;;10.85;6.42;;;;;;;15.33;66.40;94891.05;1695509;82;21082;-61
2021/09/28 08:35:43;;;;;;;16.70;6.83;;;;;;;15.25;65.98;94891.21;1681313;83;21147;-60
2021/09/28 08:38:10;;;;;;;10.98;6.72;;;;;;;15.14;66.06;94884.83;1707142;82;21054;-61
2021/09/28 08:40:37;;;;;;;10.72;6.58;;;;;;;14.99;65.67;94895.08;1689080;83;21141;-60
2021/09/28 08:43:04;;;;;;;8.85;5.70;;;;;;;14.81;66.12;94893.80;1697821;83;21038;-58
2021/09/28 08:45:31;;;;;;;15.53;6.45;;;;;;;14.69;66.63;94892.05;1691820;82;21079;-57
2021/09/28 08:47:58;;;;;;;10.20;6.37;;;;;;;14.59;66.75;94900.23;1686079;83;21594;-57
2021/09/28 08:50:25;;;;;;;16.67;6.87;;;;;;;14.51;66.92;94901.05;1700940;83;21014;-62
2021/09/28 08:52:53;;;;;;;10.82;6.45;;;;;;;14.43;67.31;94910.30;1683855;83;21833;-59
2021/09/28 08:55:21;;;;;;;12.07;6.92;;;;;;;14.37;67.28;94914.17;1642788;83;21174;-60
2021/09/28 08:57:49;;;;;;;11.18;6.17;;;;;;;14.24;67.41;94918.38;1679763;83;21049;-63
2021/09/28 09:00:24;;;;;;;11.35;6.42;;;;;;;14.10;67.74;94914.24;1681253;82;21017;-62
2021/09/28 09:02:51;;;;;;;14.23;6.47;;;;;;;14.01;67.57;94917.65;1717888;81;21065;-57
2021/09/28 09:05:18;;;;;;;13.48;6.95;;;;;;;13.90;68.03;94915.97;1695594;81;21127;-57
2021/09/28 09:08:06;;;;;;;9.48;6.85;;;;;;;13.81;68.14;94920.91;1682102;82;21128;-57
2021/09/28 09:10:36;;;;;;;10.68;7.35;;;;;;;13.73;68.67;94928.59;1700440;82;21493;-59
2021/09/28 09:13:03;;;;;;;19.70;9.03;;;;;;;13.64;68.73;94932.77;1706227;81;21122;-60
2021/09/28 09:15:33;;;;;;;21.77;8.90;;;;;;;13.59;68.94;94925.09;1690933;83;21113;-62
2021/09/28 09:18:03;;;;;;;16.75;7.58;;;;;;;13.50;69.07;94935.54;1669834;83;21145;-61
2021/09/28 09:20:43;;;;;;;18.40;8.35;;;;;;;13.44;69.41;94937.36;1700339;82;21214;-66
2021/09/28 09:23:26;;;;;;;15.75;10.45;;;;;;;13.41;69.65;94943.06;1694412;83;21059;-60
2021/09/28 09:26:15;;;;;;;20.68;10.00;;;;;;;13.34;69.51;94941.97;1696672;83;21128;-57
2021/09/28 09:28:47;;;;;;;11.50;7.22;;;;;;;13.19;69.71;94945.17;1693855;83;21638;-61
2021/09/28 09:31:31;;;;;;;9.68;6.67;;;;;;;13.09;69.99;94951.92;1677133;83;21135;-62
2021/09/28 09:34:21;;;;;;;10.50;7.33;;;;;;;13.01;70.54;94950.66;1680038;84;20993;-60
2021/09/28 09:37:05;;;;;;;15.32;7.87;;;;;;;12.89;70.66;94957.07;1697187;83;21116;-59
2021/09/28 09:39:49;;;;;;;11.35;7.83;;;;;;;12.81;70.87;94954.42;1670132;83;21020;-61
2021/09/28 09:42:17;;;;;;;15.08;8.25;;;;;;;12.71;71.29;94957.02;1669675;83;21014;-58
2021/09/28 09:44:43;;;;;;;13.43;8.10;;;;;;;12.68;71.49;94970.36;1690546;82;21160;-58
2021/09/28 09:47:29;;;;;;;15.13;8.60;;;;;;;12.66;71.55;94967.25;1692671;82;21551;-59
2021/09/28 09:50:17;;;;;;;10.75;8.48;;;;;;;12.60;71.62;94973.22;1706808;82;21071;-58
2021/09/28 09:53:03;;;;;;;12.90;8.60;;;;;;;12.53;71.95;94975.48;1686247;82;21062;-59
2021/09/28 09:55:31;;;;;;;12.65;8.20;;;;;;;12.49;72.10;94975.62;1692113;82;21018;-58
2021/09/28 09:57:59;;;;;;;14.07;8.18;;;;;;;12.47;72.39;94984.97;1694654;83;21096;-58
2021/09/28 10:00:26;;;;;;;13.18;9.10;;;;;;;12.47;72.37;94982.20;1705637;82;21129;-59
2021/09/28 10:02:55;;;;;;;12.33;9.03;;;;;;;12.45;72.64;94988.03;1692091;82;21633;-60
2021/09/28 10:05:22;;;;;;;14.73;9.13;;;;;;;12.44;72.78;94992.02;1655944;82;21470;-58
2021/09/28 10:07:49;;;;;;;13.38;8.33;;;;;;;12.45;72.78;94991.55;1711563;82;21422;-57
2021/09/28 10:10:19;;;;;;;16.57;8.38;;;;;;;12.48;72.68;94993.40;1701401;83;21073;-58
2021/09/28 10:12:45;;;;;;;14.07;8.23;;;;;;;12.54;72.56;94991.61;1667114;83;21105;-58
2021/09/28 10:15:16;;;;;;;15.23;9.38;;;;;;;12.51;72.28;94998.04;1703986;83;21519;-59
2021/09/28 10:17:49;;;;;;;15.72;8.38;;;;;;;12.49;72.29;95000.45;1655029;84;21479;-60
2021/09/28 10:20:29;;;;;;;20.02;9.85;;;;;;;12.51;72.59;94998.04;1647310;85;21069;-58
2021/09/28 10:23:21;;;;;;;14.25;8.10;;;;;;;12.50;72.80;94997.09;1682004;83;21161;-58
2021/09/28 10:25:46;;;;;;;15.20;8.75;;;;;;;12.49;72.82;94999.70;1692773;82;21475;-58
2021/09/28 10:28:19;;;;;;;17.75;9.00;;;;;;;12.48;72.60;95000.30;1669504;83;21026;-63
2021/09/28 10:30:47;;;;;;;18.32;9.55;;;;;;;12.52;72.66;95008.45;1671790;82;21057;-57
2021/09/28 10:33:26;;;;;;;14.38;8.18;;;;;;;12.53;72.44;95011.36;1696295;82;21375;-59
2021/09/28 10:36:12;;;;;;;13.28;8.48;;;;;;;12.49;72.52;95008.73;1670128;83;21156;-58
2021/09/28 10:38:53;;;;;;;;;;;;;;;12.44;72.81;95012.72;1688445;82;21043;-59
2021/09/28 10:41:43;;;;;;;16.42;9.73;;;;;;;12.43;72.78;95016.07;1689580;82;20532;-60
2021/09/28 10:44:40;;;;;;;15.75;7.87;;;;;;;12.42;72.90;95021.43;1674173;83;21045;-60
2021/09/28 10:47:07;;;;;;;20.30;9.48;;;;;;;12.42;72.90;95020.68;1655004;84;21058;-58
2021/09/28 10:49:36;;;;;;;16.12;9.70;;;;;;;12.41;73.07;95021.91;1712553;82;21137;-60
2021/09/28 10:52:27;;;;;;;12.15;7.67;;;;;;;12.43;73.08;95022.22;1717622;82;21351;-59
2021/09/28 10:55:12;;;;;;;13.03;7.45;;;;;;;12.43;73.39;95029.87;1673594;84;21039;-58
2021/09/28 10:58:09;;;;;;;15.35;9.35;;;;;;;12.44;73.22;95030.03;1691047;83;21594;-57
2021/09/28 11:00:53;;;;;;;13.68;7.80;;;;;;;12.46;73.41;95030.97;1669394;83;21058;-58
2021/09/28 11:03:58;;;;;;;18.00;8.95;;;;;;;12.51;73.22;95033.91;1684635;83;21406;-57
2021/09/28 11:06:52;;;;;;;15.38;8.35;;;;;;;12.52;72.98;95027.17;1660698;83;21518;-56
2021/09/28 11:09:22;;;;;;;18.30;9.23;;;;;;;12.50;73.04;95039.27;1669167;82;21035;-62
2021/09/28 11:11:55;;;;;;;15.83;8.90;;;;;;;12.49;72.90;95032.19;1683450;83;21076;-65
2021/09/28 11:14:24;;;;;;;12.65;9.25;;;;;;;12.51;72.96;95032.53;1701306;83;21028;-63
2021/09/28 11:16:56;;;;;;;17.65;9.98;;;;;;;12.51;73.10;95029.77;1696060;83;21148;-60
2021/09/28 11:19:33;;;;;;;12.10;8.13;;;;;;;12.53;72.99;95033.60;1697267;82;21045;-64
2021/09/28 11:22:01;;;;;;;14.35;9.10;;;;;;;12.55;72.66;95030.41;1684081;83;21027;-61
2021/09/28 11:24:30;;;;;;;21.57;11.65;;;;;;;12.52;72.80;95037.42;1700609;82;21014;-58
2021/09/28 11:27:04;;;;;;;24.20;10.25;;;;;;;12.51;73.22;95032.53;1695309;82;21053;-59
2021/09/28 11:29:31;;;;;;;19.42;9.83;;;;;;;12.52;73.15;95035.45;1666208;83;21133;-60
2021/09/28 11:32:02;;;;;;;17.98;9.78;;;;;;;12.55;73.00;95036.67;1696235;82;21053;-61
2021/09/28 11:34:32;;;;;;;12.10;8.00;;;;;;;12.56;72.86;95034.07;1685067;82;21105;-61
2021/09/28 11:37:01;;;;;;;13.93;9.35;;;;;;;12.58;72.90;95037.77;1709364;83;21018;-60